createdAt,value
2018-04-11T00:00:06.040Z,12.44
2018-04-11T00:01:06.497Z,12.44
2018-04-11T00:02:05.606Z,12.38
2018-04-11T00:03:06.540Z,12.44
2018-04-11T00:04:06.486Z,12.38
2018-04-11T00:05:05.720Z,12.38
2018-04-11T00:06:05.946Z,12.38
2018-04-11T00:07:05.784Z,12.38
2018-04-11T00:08:06.728Z,12.31
2018-04-11T00:09:06.341Z,12.31
2018-04-11T00:10:05.471Z,12.31
2018-04-11T00:11:11.119Z,12.25
2018-04-11T00:12:05.710Z,12.25
2018-04-11T00:13:05.726Z,12.25
2018-04-11T00:14:05.716Z,12.25
2018-04-11T00:15:06.558Z,12.19
2018-04-11T00:16:06.360Z,12.19
2018-04-11T00:17:06.453Z,12.19
2018-04-11T00:18:11.276Z,12.19
2018-04-11T00:19:05.872Z,12.19
2018-04-11T00:20:06.402Z,12.19
2018-04-11T00:21:06.232Z,12.19
2018-04-11T00:22:06.048Z,12.12
2018-04-11T00:23:06.194Z,12.12
2018-04-11T00:24:06.227Z,12.12
2018-04-11T00:25:06.094Z,12.12
2018-04-11T00:26:06.201Z,12.12
2018-04-11T00:27:06.521Z,12.06
2018-04-11T00:28:06.531Z,12.12
2018-04-11T00:29:10.869Z,12.06
2018-04-11T00:30:06.103Z,12.06
2018-04-11T00:31:05.795Z,12.06
2018-04-11T00:32:05.628Z,12.06
2018-04-11T00:33:06.421Z,12.00
2018-04-11T00:34:06.467Z,12.00
2018-04-11T00:35:06.110Z,12.00
2018-04-11T00:36:05.471Z,11.94
2018-04-11T00:37:06.439Z,11.94
2018-04-11T00:38:06.427Z,11.88
2018-04-11T00:39:05.548Z,11.88
2018-04-11T00:40:05.864Z,11.88
2018-04-11T00:41:05.949Z,11.88
2018-04-11T00:42:05.634Z,11.88
2018-04-11T00:43:05.461Z,11.88
2018-04-11T00:44:06.032Z,11.81
2018-04-11T00:45:05.542Z,11.81
2018-04-11T00:46:05.814Z,11.81
2018-04-11T00:47:06.103Z,11.81
2018-04-11T00:48:06.302Z,11.81
2018-04-11T00:49:05.894Z,11.81
2018-04-11T00:50:06.514Z,11.81
2018-04-11T00:51:06.425Z,11.75
2018-04-11T00:52:06.124Z,11.69
2018-04-11T00:53:05.547Z,11.69
2018-04-11T00:54:06.209Z,11.69
2018-04-11T00:55:06.999Z,11.69
2018-04-11T00:56:11.117Z,11.69
2018-04-11T00:57:05.628Z,11.69
2018-04-11T00:58:06.599Z,11.69
2018-04-11T00:59:05.619Z,11.75
2018-04-11T01:00:06.516Z,11.75
2018-04-11T01:01:05.718Z,11.69
2018-04-11T01:02:05.790Z,11.69
2018-04-11T01:03:06.430Z,11.75
2018-04-11T01:04:06.031Z,11.69
2018-04-11T01:05:06.019Z,11.69
2018-04-11T01:06:06.164Z,11.69
2018-04-11T01:07:10.507Z,11.69
2018-04-11T01:08:06.026Z,11.69
2018-04-11T01:09:05.940Z,11.69
2018-04-11T01:10:05.566Z,11.69
2018-04-11T01:11:06.283Z,11.69
2018-04-11T01:12:05.873Z,11.69
2018-04-11T01:13:05.542Z,11.75
2018-04-11T01:14:06.117Z,11.75
2018-04-11T01:15:05.972Z,11.69
2018-04-11T01:16:06.262Z,11.69
2018-04-11T01:17:05.890Z,11.69
2018-04-11T01:18:05.717Z,11.69
2018-04-11T01:19:06.395Z,11.69
2018-04-11T01:20:05.706Z,11.69
2018-04-11T01:21:06.435Z,11.69
2018-04-11T01:22:06.192Z,11.69
2018-04-11T01:23:05.944Z,11.69
2018-04-11T01:24:06.448Z,11.62
2018-04-11T01:25:05.697Z,11.62
2018-04-11T01:26:06.360Z,11.62
2018-04-11T01:27:05.546Z,11.62
2018-04-11T01:28:06.539Z,11.56
2018-04-11T01:29:05.795Z,11.56
2018-04-11T01:30:06.517Z,11.50
2018-04-11T01:31:06.631Z,11.50
2018-04-11T01:32:05.787Z,11.50
2018-04-11T01:33:06.513Z,11.44
2018-04-11T01:34:06.111Z,11.44
2018-04-11T01:35:05.708Z,11.44
2018-04-11T01:36:06.330Z,11.44
2018-04-11T01:37:06.455Z,11.44
2018-04-11T01:38:06.429Z,11.44
2018-04-11T01:39:05.865Z,11.44
2018-04-11T01:40:06.507Z,11.44
2018-04-11T01:41:05.964Z,11.44
2018-04-11T01:42:05.784Z,11.44
2018-04-11T01:43:06.428Z,11.38
2018-04-11T01:44:05.629Z,11.31
2018-04-11T01:45:06.421Z,11.38
2018-04-11T01:46:07.164Z,11.31
2018-04-11T01:47:06.036Z,11.31
2018-04-11T01:48:05.866Z,11.31
2018-04-11T01:49:05.861Z,11.25
2018-04-11T01:50:06.034Z,11.25
2018-04-11T01:51:05.700Z,11.25
2018-04-11T01:52:05.784Z,11.25
2018-04-11T01:53:05.636Z,11.19
2018-04-11T01:54:06.128Z,11.19
2018-04-11T01:55:06.609Z,11.19
2018-04-11T01:56:05.885Z,11.19
2018-04-11T01:57:06.505Z,11.19
2018-04-11T01:58:06.259Z,11.19
2018-04-11T01:59:05.636Z,11.12
2018-04-11T02:00:06.516Z,11.12
2018-04-11T02:01:05.780Z,11.12
2018-04-11T02:02:06.385Z,11.12
2018-04-11T02:03:06.186Z,11.12
2018-04-11T02:04:06.565Z,11.12
2018-04-11T02:05:05.791Z,11.06
2018-04-11T02:06:06.624Z,11.06
2018-04-11T02:07:12.559Z,11.06
2018-04-11T02:08:06.100Z,11.06
2018-04-11T02:09:06.109Z,11.06
2018-04-11T02:10:05.755Z,11.00
2018-04-11T02:11:06.266Z,11.00
2018-04-11T02:12:05.830Z,11.00
2018-04-11T02:13:06.465Z,10.94
2018-04-11T02:14:06.374Z,10.94
2018-04-11T02:15:05.778Z,10.94
2018-04-11T02:16:05.960Z,10.94
2018-04-11T02:17:06.180Z,10.94
2018-04-11T02:18:06.132Z,10.88
2018-04-11T02:19:06.151Z,10.88
2018-04-11T02:20:06.354Z,10.81
2018-04-11T02:21:05.700Z,10.81
2018-04-11T02:22:06.425Z,10.81
2018-04-11T02:23:05.713Z,10.81
2018-04-11T02:24:06.528Z,10.81
2018-04-11T02:25:06.537Z,10.75
2018-04-11T02:26:05.861Z,10.75
2018-04-11T02:27:10.481Z,10.75
2018-04-11T02:28:06.431Z,10.75
2018-04-11T02:29:05.464Z,10.69
2018-04-11T02:30:05.589Z,10.69
2018-04-11T02:31:05.707Z,10.62
2018-04-11T02:32:11.304Z,10.62
2018-04-11T02:33:06.043Z,10.62
2018-04-11T02:34:05.942Z,10.62
2018-04-11T02:35:06.106Z,10.69
2018-04-11T02:36:06.064Z,10.62
2018-04-11T02:37:06.426Z,10.62
2018-04-11T02:38:05.716Z,10.62
2018-04-11T02:39:06.344Z,10.62
2018-04-11T02:40:06.267Z,10.62
2018-04-11T02:41:06.032Z,10.62
2018-04-11T02:42:05.962Z,10.69
2018-04-11T02:43:06.554Z,10.62
2018-04-11T02:44:06.264Z,10.62
2018-04-11T02:45:05.866Z,10.62
2018-04-11T02:46:05.622Z,10.62
2018-04-11T02:47:05.782Z,10.62
2018-04-11T02:48:05.962Z,10.62
2018-04-11T02:49:06.112Z,10.62
2018-04-11T02:50:06.602Z,10.62
2018-04-11T02:51:06.337Z,10.62
2018-04-11T02:52:05.933Z,10.56
2018-04-11T02:53:06.529Z,10.56
2018-04-11T02:54:06.062Z,10.56
2018-04-11T02:55:06.085Z,10.56
2018-04-11T02:56:06.112Z,10.56
2018-04-11T02:57:06.195Z,10.56
2018-04-11T02:58:06.281Z,10.56
2018-04-11T02:59:06.349Z,10.56
2018-04-11T03:00:05.867Z,10.56
2018-04-11T03:01:05.782Z,10.56
2018-04-11T03:02:05.785Z,10.56
2018-04-11T03:03:06.203Z,10.50
2018-04-11T03:04:06.110Z,10.50
2018-04-11T03:05:06.580Z,10.50
2018-04-11T03:06:06.097Z,10.50
2018-04-11T03:07:06.585Z,10.56
2018-04-11T03:08:06.599Z,10.50
2018-04-11T03:09:05.875Z,10.50
2018-04-11T03:10:06.514Z,10.50
2018-04-11T03:11:05.706Z,10.50
2018-04-11T03:12:05.782Z,10.50
2018-04-11T03:13:06.820Z,10.50
2018-04-11T03:14:05.645Z,10.50
2018-04-11T03:15:06.762Z,10.50
2018-04-11T03:16:05.797Z,10.50
2018-04-11T03:17:05.879Z,10.50
2018-04-11T03:18:05.624Z,10.50
2018-04-11T03:19:06.367Z,10.44
2018-04-11T03:20:05.784Z,10.44
2018-04-11T03:21:06.495Z,10.50
2018-04-11T03:22:06.472Z,10.44
2018-04-11T03:23:05.623Z,10.44
2018-04-11T03:24:05.540Z,10.44
2018-04-11T03:25:06.516Z,10.44
2018-04-11T03:26:06.476Z,10.38
2018-04-11T03:27:05.945Z,10.38
2018-04-11T03:28:06.185Z,10.38
2018-04-11T03:29:06.022Z,10.38
2018-04-11T03:30:05.467Z,10.38
2018-04-11T03:31:06.516Z,10.38
2018-04-11T03:32:06.182Z,10.38
2018-04-11T03:33:11.265Z,10.38
2018-04-11T03:34:05.945Z,10.38
2018-04-11T03:35:06.040Z,10.38
2018-04-11T03:36:11.368Z,10.38
2018-04-11T03:37:05.968Z,10.38
2018-04-11T03:38:05.553Z,10.31
2018-04-11T03:39:11.239Z,10.31
2018-04-11T03:40:05.871Z,10.38
2018-04-11T03:41:05.630Z,10.38
2018-04-11T03:42:05.721Z,10.38
2018-04-11T03:43:05.873Z,10.38
2018-04-11T03:44:06.342Z,10.38
2018-04-11T03:45:06.476Z,10.31
2018-04-11T03:46:06.026Z,10.31
2018-04-11T03:47:06.516Z,10.31
2018-04-11T03:48:06.192Z,10.31
2018-04-11T03:49:05.880Z,10.31
2018-04-11T03:50:06.748Z,10.31
2018-04-11T03:51:06.113Z,10.31
2018-04-11T03:52:06.114Z,10.31
2018-04-11T03:53:06.041Z,10.38
2018-04-11T03:54:10.417Z,10.31
2018-04-11T03:55:05.520Z,10.31
2018-04-11T03:56:05.686Z,10.38
2018-04-11T03:57:05.870Z,10.38
2018-04-11T03:58:05.851Z,10.38
2018-04-11T03:59:06.048Z,10.38
2018-04-11T04:00:06.421Z,10.38
2018-04-11T04:01:06.045Z,10.38
2018-04-11T04:02:05.942Z,10.38
2018-04-11T04:03:06.205Z,10.44
2018-04-11T04:04:05.689Z,10.44
2018-04-11T04:05:06.110Z,10.44
2018-04-11T04:06:05.857Z,10.44
2018-04-11T04:07:06.843Z,10.44
2018-04-11T04:08:05.543Z,10.44
2018-04-11T04:09:06.201Z,10.50
2018-04-11T04:10:10.779Z,10.50
2018-04-11T04:11:06.507Z,10.50
2018-04-11T04:12:05.930Z,10.50
2018-04-11T04:13:05.622Z,10.50
2018-04-11T04:14:06.446Z,10.50
2018-04-11T04:15:05.955Z,10.50
2018-04-11T04:16:06.024Z,10.50
2018-04-11T04:17:06.273Z,10.50
2018-04-11T04:18:05.627Z,10.50
2018-04-11T04:19:05.631Z,10.50
2018-04-11T04:20:05.621Z,10.50
2018-04-11T04:21:06.510Z,10.50
2018-04-11T04:22:06.199Z,10.50
2018-04-11T04:23:06.186Z,10.56
2018-04-11T04:24:06.429Z,10.50
2018-04-11T04:25:06.153Z,10.50
2018-04-11T04:26:06.507Z,10.50
2018-04-11T04:27:05.936Z,10.50
2018-04-11T04:28:11.413Z,10.50
2018-04-11T04:29:06.189Z,10.56
2018-04-11T04:30:06.565Z,10.56
2018-04-11T04:31:06.423Z,10.56
2018-04-11T04:32:06.266Z,10.56
2018-04-11T04:33:06.278Z,10.56
2018-04-11T04:34:05.696Z,10.56
2018-04-11T04:35:06.265Z,10.56
2018-04-11T04:36:05.941Z,10.56
2018-04-11T04:37:06.373Z,10.62
2018-04-11T04:38:06.027Z,10.62
2018-04-11T04:39:05.743Z,10.62
2018-04-11T04:40:11.225Z,10.62
2018-04-11T04:41:06.024Z,10.62
2018-04-11T04:42:06.683Z,10.69
2018-04-11T04:43:06.267Z,10.69
2018-04-11T04:44:05.866Z,10.69
2018-04-11T04:45:06.194Z,10.75
2018-04-11T04:46:06.083Z,10.75
2018-04-11T04:47:05.805Z,10.75
2018-04-11T04:48:05.714Z,10.81
2018-04-11T04:49:06.047Z,10.81
2018-04-11T04:50:06.108Z,10.81
2018-04-11T04:51:05.870Z,10.88
2018-04-11T04:52:06.421Z,11.19
2018-04-11T04:53:07.184Z,11.38
2018-04-11T04:54:06.262Z,11.38
2018-04-11T04:55:06.530Z,11.25
2018-04-11T04:56:05.975Z,11.25
2018-04-11T04:57:06.112Z,11.19
2018-04-11T04:58:05.934Z,11.19
2018-04-11T04:59:05.464Z,11.19
2018-04-11T05:00:05.654Z,11.25
2018-04-11T05:01:06.085Z,11.25
2018-04-11T05:02:06.535Z,11.25
2018-04-11T05:03:06.183Z,11.25
2018-04-11T05:04:06.041Z,11.25
2018-04-11T05:05:05.956Z,11.25
2018-04-11T05:06:05.969Z,11.25
2018-04-11T05:07:05.812Z,11.25
2018-04-11T05:08:06.501Z,11.25
2018-04-11T05:09:06.302Z,11.25
2018-04-11T05:10:05.881Z,11.25
2018-04-11T05:11:05.710Z,11.25
2018-04-11T05:12:06.372Z,11.31
2018-04-11T05:13:06.015Z,11.31
2018-04-11T05:14:06.503Z,11.38
2018-04-11T05:15:11.271Z,11.44
2018-04-11T05:16:05.955Z,11.44
2018-04-11T05:17:10.629Z,11.44
2018-04-11T05:18:06.346Z,11.44
2018-04-11T05:19:06.027Z,11.50
2018-04-11T05:20:05.897Z,11.50
2018-04-11T05:21:05.780Z,11.50
2018-04-11T05:22:05.716Z,11.50
2018-04-11T05:23:05.593Z,11.50
2018-04-11T05:24:05.613Z,11.56
2018-04-11T05:25:06.169Z,11.75
2018-04-11T05:26:06.029Z,12.00
2018-04-11T05:27:06.422Z,12.12
2018-04-11T05:28:05.861Z,12.06
2018-04-11T05:29:05.714Z,12.06
2018-04-11T05:30:06.463Z,12.00
2018-04-11T05:31:05.780Z,12.38
2018-04-11T05:32:10.799Z,12.75
2018-04-11T05:33:05.873Z,12.75
2018-04-11T05:34:06.626Z,12.69
2018-04-11T05:35:05.881Z,12.56
2018-04-11T05:36:06.463Z,12.50
2018-04-11T05:37:06.592Z,12.81
2018-04-11T05:38:11.269Z,13.06
2018-04-11T05:39:05.950Z,12.94
2018-04-11T05:40:05.839Z,12.81
2018-04-11T05:41:05.779Z,12.88
2018-04-11T05:42:06.437Z,12.75
2018-04-11T05:43:06.111Z,12.75
2018-04-11T05:44:05.875Z,12.69
2018-04-11T05:45:06.028Z,12.62
2018-04-11T05:46:10.990Z,12.56
2018-04-11T05:47:05.489Z,12.50
2018-04-11T05:48:06.268Z,12.44
2018-04-11T05:49:05.860Z,12.44
2018-04-11T05:50:06.353Z,12.44
2018-04-11T05:51:06.186Z,12.44
2018-04-11T05:52:05.840Z,12.38
2018-04-11T05:53:06.172Z,12.38
2018-04-11T05:54:05.999Z,12.38
2018-04-11T05:55:05.798Z,12.38
2018-04-11T05:56:06.429Z,12.38
2018-04-11T05:57:06.108Z,12.38
2018-04-11T05:58:05.601Z,12.38
2018-04-11T05:59:06.255Z,12.62
2018-04-11T06:00:06.502Z,12.88
2018-04-11T06:01:05.633Z,12.94
2018-04-11T06:02:06.149Z,13.00
2018-04-11T06:03:11.460Z,13.31
2018-04-11T06:04:11.675Z,13.44
2018-04-11T06:05:06.459Z,13.31
2018-04-11T06:06:06.434Z,13.25
2018-04-11T06:07:06.201Z,13.56
2018-04-11T06:08:05.705Z,13.44
2018-04-11T06:09:06.436Z,13.31
2018-04-11T06:10:06.531Z,13.38
2018-04-11T06:11:05.796Z,13.38
2018-04-11T06:12:10.885Z,13.25
2018-04-11T06:13:05.654Z,13.19
2018-04-11T06:14:06.110Z,13.06
2018-04-11T06:15:10.810Z,13.00
2018-04-11T06:16:11.514Z,12.94
2018-04-11T06:17:06.197Z,12.88
2018-04-11T06:18:06.370Z,12.81
2018-04-11T06:19:10.955Z,12.81
2018-04-11T06:20:05.677Z,12.75
2018-04-11T06:21:05.640Z,12.75
2018-04-11T06:22:07.412Z,12.69
2018-04-11T06:23:05.948Z,12.69
2018-04-11T06:24:06.225Z,12.62
2018-04-11T06:25:06.424Z,12.62
2018-04-11T06:26:06.591Z,12.62
2018-04-11T06:27:06.359Z,12.62
2018-04-11T06:28:05.491Z,12.62
2018-04-11T06:29:05.638Z,12.56
2018-04-11T06:30:06.599Z,12.56
2018-04-11T06:31:05.833Z,12.56
2018-04-11T06:32:06.518Z,12.50
2018-04-11T06:33:06.130Z,12.50
2018-04-11T06:34:05.695Z,12.56
2018-04-11T06:35:06.496Z,12.56
2018-04-11T06:36:05.708Z,12.56
2018-04-11T06:37:06.195Z,12.56
2018-04-11T06:38:11.170Z,12.56
2018-04-11T06:39:05.942Z,12.81
2018-04-11T06:40:06.340Z,12.88
2018-04-11T06:41:06.357Z,12.81
2018-04-11T06:42:06.458Z,12.81
2018-04-11T06:43:11.757Z,12.81
2018-04-11T06:44:06.018Z,12.75
2018-04-11T06:45:06.057Z,12.69
2018-04-11T06:46:05.848Z,12.69
2018-04-11T06:47:06.597Z,12.62
2018-04-11T06:48:06.504Z,12.62
2018-04-11T06:49:11.461Z,12.62
2018-04-11T06:50:06.065Z,12.62
2018-04-11T06:51:06.560Z,12.56
2018-04-11T06:52:06.011Z,12.56
2018-04-11T06:53:05.695Z,12.56
2018-04-11T06:54:05.671Z,12.56
2018-04-11T06:55:05.560Z,12.56
2018-04-11T06:56:05.806Z,12.50
2018-04-11T06:57:07.325Z,12.50
2018-04-11T06:58:06.021Z,12.50
2018-04-11T06:59:05.622Z,12.50
2018-04-11T07:00:05.723Z,12.50
2018-04-11T07:01:06.445Z,12.50
2018-04-11T07:02:05.709Z,12.56
2018-04-11T07:03:06.680Z,12.56
2018-04-11T07:04:06.272Z,12.56
2018-04-11T07:05:06.823Z,12.56
2018-04-11T07:06:05.998Z,12.56
2018-04-11T07:07:06.428Z,12.56
2018-04-11T07:08:06.427Z,12.56
2018-04-11T07:09:07.501Z,12.56
2018-04-11T07:10:06.175Z,12.56
2018-04-11T07:11:06.147Z,12.56
2018-04-11T07:12:11.048Z,12.56
2018-04-11T07:13:05.767Z,12.56
2018-04-11T07:14:06.659Z,12.56
2018-04-11T07:15:05.955Z,12.56
2018-04-11T07:16:05.783Z,12.56
2018-04-11T07:17:06.061Z,12.56
2018-04-11T07:18:05.826Z,12.56
2018-04-11T07:19:05.869Z,12.56
2018-04-11T07:20:06.429Z,12.56
2018-04-11T07:21:11.282Z,12.56
2018-04-11T07:22:05.877Z,12.62
2018-04-11T07:23:06.079Z,12.62
2018-04-11T07:24:06.755Z,12.62
2018-04-11T07:25:05.623Z,12.62
2018-04-11T07:26:05.945Z,12.62
2018-04-11T07:27:05.792Z,12.62
2018-04-11T07:28:05.956Z,12.62
2018-04-11T07:29:11.499Z,12.62
2018-04-11T07:30:06.199Z,12.62
2018-04-11T07:31:06.659Z,12.62
2018-04-11T07:32:05.617Z,12.69
2018-04-11T07:33:07.649Z,12.69
2018-04-11T07:34:06.526Z,12.69
2018-04-11T07:35:06.517Z,12.69
2018-04-11T07:36:05.717Z,12.69
2018-04-11T07:37:05.907Z,12.81
2018-04-11T07:38:06.529Z,13.19
2018-04-11T07:39:05.703Z,13.62
2018-04-11T07:40:06.553Z,13.56
2018-04-11T07:41:05.625Z,13.69
2018-04-11T07:42:06.599Z,13.81
2018-04-11T07:43:06.535Z,14.00
2018-04-11T07:44:06.425Z,14.25
2018-04-11T07:45:05.793Z,14.50
2018-04-11T07:46:14.063Z,14.44
2018-04-11T07:47:07.713Z,14.44
2018-04-11T07:48:11.380Z,14.44
2018-04-11T07:49:05.976Z,14.50
2018-04-11T07:50:06.183Z,14.50
2018-04-11T07:51:05.949Z,14.56
2018-04-11T07:52:05.796Z,14.69
2018-04-11T07:53:07.078Z,14.69
2018-04-11T07:54:06.379Z,14.50
2018-04-11T07:55:05.717Z,14.38
2018-04-11T07:56:11.615Z,14.19
2018-04-11T07:57:06.266Z,14.06
2018-04-11T07:58:06.916Z,13.94
2018-04-11T07:59:06.456Z,13.81
2018-04-11T08:00:06.269Z,13.69
2018-04-11T08:01:05.618Z,13.62
2018-04-11T08:02:11.527Z,13.56
2018-04-11T08:03:06.160Z,13.50
2018-04-11T08:04:06.269Z,13.44
2018-04-11T08:05:06.428Z,13.44
2018-04-11T08:06:06.195Z,13.38
2018-04-11T08:07:06.218Z,13.38
2018-04-11T08:08:06.506Z,13.31
2018-04-11T08:09:10.549Z,13.31
2018-04-11T08:10:06.357Z,13.25
2018-04-11T08:11:06.827Z,13.25
2018-04-11T08:12:05.833Z,13.25
2018-04-11T08:13:06.535Z,13.19
2018-04-11T08:14:06.458Z,13.19
2018-04-11T08:15:06.009Z,13.19
2018-04-11T08:16:05.898Z,13.12
2018-04-11T08:17:05.624Z,13.19
2018-04-11T08:18:06.260Z,13.12
2018-04-11T08:19:06.204Z,13.12
2018-04-11T08:20:11.269Z,13.31
2018-04-11T08:21:06.037Z,13.44
2018-04-11T08:22:05.648Z,13.75
2018-04-11T08:23:06.753Z,14.19
2018-04-11T08:24:06.181Z,14.38
2018-04-11T08:25:05.893Z,14.81
2018-04-11T08:26:06.640Z,14.88
2018-04-11T08:27:11.290Z,14.50
2018-04-11T08:28:05.900Z,14.25
2018-04-11T08:29:06.033Z,14.25
2018-04-11T08:30:06.177Z,14.12
2018-04-11T08:31:05.946Z,14.19
2018-04-11T08:32:05.829Z,14.31
2018-04-11T08:33:05.541Z,14.50
2018-04-11T08:34:06.594Z,14.56
2018-04-11T08:35:05.863Z,14.62
2018-04-11T08:36:06.586Z,14.69
2018-04-11T08:37:06.420Z,14.62
2018-04-11T08:38:05.547Z,14.69
2018-04-11T08:39:05.711Z,14.69
2018-04-11T08:40:06.663Z,14.81
2018-04-11T08:41:06.448Z,14.81
2018-04-11T08:42:06.211Z,14.88
2018-04-11T08:43:06.757Z,14.94
2018-04-11T08:44:11.430Z,15.00
2018-04-11T08:45:06.446Z,15.00
2018-04-11T08:46:05.788Z,14.94
2018-04-11T08:47:05.456Z,15.00
2018-04-11T08:48:06.415Z,15.06
2018-04-11T08:49:05.716Z,15.19
2018-04-11T08:50:06.124Z,15.19
2018-04-11T08:51:05.866Z,15.19
2018-04-11T08:52:06.130Z,15.25
2018-04-11T08:53:06.132Z,15.12
2018-04-11T08:54:05.542Z,15.12
2018-04-11T08:55:06.431Z,15.12
2018-04-11T08:56:06.258Z,15.00
2018-04-11T08:57:05.875Z,14.94
2018-04-11T08:58:06.154Z,14.88
2018-04-11T08:59:06.106Z,14.75
2018-04-11T09:00:06.426Z,14.69
2018-04-11T09:01:06.582Z,14.62
2018-04-11T09:02:06.410Z,14.56
2018-04-11T09:03:06.284Z,14.50
2018-04-11T09:04:05.792Z,14.38
2018-04-11T09:05:05.721Z,14.31
2018-04-11T09:06:06.350Z,14.25
2018-04-11T09:07:06.152Z,14.12
2018-04-11T09:08:06.185Z,14.12
2018-04-11T09:09:05.538Z,14.19
2018-04-11T09:10:05.811Z,14.25
2018-04-11T09:11:05.623Z,14.31
2018-04-11T09:12:05.737Z,14.38
2018-04-11T09:13:06.211Z,14.50
2018-04-11T09:14:05.718Z,14.50
2018-04-11T09:15:06.774Z,14.56
2018-04-11T09:16:06.254Z,14.50
2018-04-11T09:17:05.949Z,14.44
2018-04-11T09:18:06.426Z,14.31
2018-04-11T09:19:05.709Z,14.25
2018-04-11T09:20:06.426Z,14.25
2018-04-11T09:21:06.502Z,14.19
2018-04-11T09:22:06.261Z,14.19
2018-04-11T09:23:06.713Z,14.25
2018-04-11T09:24:06.188Z,14.38
2018-04-11T09:25:06.027Z,14.50
2018-04-11T09:26:05.958Z,14.62
2018-04-11T09:27:05.955Z,14.88
2018-04-11T09:28:05.892Z,15.00
2018-04-11T09:29:06.254Z,15.00
2018-04-11T09:30:10.758Z,15.06
2018-04-11T09:31:07.165Z,15.06
2018-04-11T09:32:05.618Z,15.19
2018-04-11T09:33:06.370Z,15.38
2018-04-11T09:34:06.355Z,15.56
2018-04-11T09:35:06.332Z,15.81
2018-04-11T09:36:06.192Z,15.94
2018-04-11T09:37:10.818Z,15.94
2018-04-11T09:38:11.676Z,15.88
2018-04-11T09:39:06.350Z,15.88
2018-04-11T09:40:06.367Z,15.88
2018-04-11T09:41:06.367Z,15.88
2018-04-11T09:42:05.781Z,15.88
2018-04-11T09:43:06.254Z,15.88
2018-04-11T09:44:06.399Z,15.88
2018-04-11T09:45:11.537Z,15.88
2018-04-11T09:46:11.174Z,15.88
2018-04-11T09:47:05.868Z,15.94
2018-04-11T09:48:05.875Z,15.94
2018-04-11T09:49:10.672Z,16.00
2018-04-11T09:50:06.424Z,16.00
2018-04-11T09:51:06.184Z,16.19
2018-04-11T09:52:06.200Z,16.31
2018-04-11T09:53:07.063Z,16.44
2018-04-11T09:54:06.260Z,16.56
2018-04-11T09:55:06.053Z,16.69
2018-04-11T09:56:05.799Z,16.75
2018-04-11T09:57:06.111Z,16.88
2018-04-11T09:58:06.098Z,17.00
2018-04-11T09:59:05.873Z,17.06
2018-04-11T10:00:11.363Z,17.12
2018-04-11T10:01:10.481Z,17.12
2018-04-11T10:02:06.667Z,17.12
2018-04-11T10:03:07.246Z,17.12
2018-04-11T10:04:06.341Z,17.06
2018-04-11T10:05:06.061Z,17.00
2018-04-11T10:06:05.569Z,17.00
2018-04-11T10:07:11.443Z,17.00
2018-04-11T10:08:06.039Z,17.00
2018-04-11T10:09:10.754Z,17.06
2018-04-11T10:10:06.515Z,17.06
2018-04-11T10:11:06.126Z,17.12
2018-04-11T10:12:06.028Z,17.12
2018-04-11T10:13:06.418Z,17.31
2018-04-11T10:14:06.333Z,17.62
2018-04-11T10:15:06.204Z,17.75
2018-04-11T10:16:11.505Z,17.69
2018-04-11T10:17:06.173Z,18.06
2018-04-11T10:18:06.198Z,18.25
2018-04-11T10:19:05.716Z,18.31
2018-04-11T10:20:05.950Z,18.44
2018-04-11T10:21:06.507Z,18.50
2018-04-11T10:22:05.715Z,18.44
2018-04-11T10:23:06.182Z,18.38
2018-04-11T10:24:10.973Z,18.31
2018-04-11T10:25:05.709Z,18.31
2018-04-11T10:26:11.267Z,18.31
2018-04-11T10:27:06.038Z,18.25
2018-04-11T10:28:10.577Z,18.25
2018-04-11T10:29:06.361Z,18.19
2018-04-11T10:30:06.182Z,18.19
2018-04-11T10:31:06.349Z,18.19
2018-04-11T10:32:05.534Z,18.19
2018-04-11T10:33:05.543Z,18.12
2018-04-11T10:34:06.361Z,18.19
2018-04-11T10:35:05.868Z,18.19
2018-04-11T10:36:05.889Z,18.19
2018-04-11T10:37:06.503Z,18.19
2018-04-11T10:38:06.013Z,18.19
2018-04-11T10:39:05.867Z,18.19
2018-04-11T10:40:05.535Z,18.19
2018-04-11T10:41:05.792Z,18.12
2018-04-11T10:42:06.557Z,18.12
2018-04-11T10:43:06.097Z,18.12
2018-04-11T10:44:06.272Z,18.12
2018-04-11T10:45:06.440Z,18.12
2018-04-11T10:46:06.368Z,18.25
2018-04-11T10:47:05.987Z,18.44
2018-04-11T10:48:05.857Z,18.44
2018-04-11T10:49:05.953Z,18.56
2018-04-11T10:50:06.724Z,18.69
2018-04-11T10:51:06.427Z,18.69
2018-04-11T10:52:06.564Z,18.62
2018-04-11T10:53:05.634Z,18.69
2018-04-11T10:54:05.619Z,18.75
2018-04-11T10:55:10.698Z,18.69
2018-04-11T10:56:06.183Z,18.56
2018-04-11T10:57:05.614Z,18.44
2018-04-11T10:58:06.263Z,18.31
2018-04-11T10:59:06.518Z,18.25
2018-04-11T11:00:06.510Z,18.25
2018-04-11T11:01:06.086Z,18.19
2018-04-11T11:02:05.874Z,18.38
2018-04-11T11:03:06.251Z,18.56
2018-04-11T11:04:06.120Z,18.62
2018-04-11T11:05:06.426Z,18.69
2018-04-11T11:06:06.180Z,18.81
2018-04-11T11:07:06.072Z,18.75
2018-04-11T11:08:05.884Z,18.69
2018-04-11T11:09:06.425Z,18.62
2018-04-11T11:10:10.994Z,18.50
2018-04-11T11:11:05.619Z,18.44
2018-04-11T11:12:06.427Z,18.44
2018-04-11T11:13:06.049Z,18.38
2018-04-11T11:14:10.558Z,18.31
2018-04-11T11:15:06.110Z,18.31
2018-04-11T11:16:06.028Z,18.25
2018-04-11T11:17:06.118Z,18.25
2018-04-11T11:18:05.782Z,18.19
2018-04-11T11:19:05.631Z,18.19
2018-04-11T11:20:06.193Z,18.19
2018-04-11T11:21:07.245Z,18.12
2018-04-11T11:22:06.128Z,18.19
2018-04-11T11:23:06.027Z,18.25
2018-04-11T11:24:06.253Z,18.44
2018-04-11T11:25:06.339Z,18.31
2018-04-11T11:26:06.113Z,18.25
2018-04-11T11:27:05.864Z,18.19
2018-04-11T11:28:07.474Z,18.12
2018-04-11T11:29:06.261Z,18.12
2018-04-11T11:30:05.703Z,18.06
2018-04-11T11:31:06.357Z,18.06
2018-04-11T11:32:06.311Z,18.00
2018-04-11T11:33:11.451Z,18.00
2018-04-11T11:34:06.137Z,18.00
2018-04-11T11:35:05.896Z,18.00
2018-04-11T11:36:06.457Z,17.94
2018-04-11T11:37:06.430Z,17.94
2018-04-11T11:38:06.356Z,17.88
2018-04-11T11:39:06.230Z,17.88
2018-04-11T11:40:05.945Z,17.81
2018-04-11T11:41:06.268Z,17.81
2018-04-11T11:42:05.904Z,17.81
2018-04-11T11:43:06.118Z,17.75
2018-04-11T11:44:05.618Z,17.69
2018-04-11T11:45:05.872Z,17.69
2018-04-11T11:46:06.581Z,17.69
2018-04-11T11:47:05.622Z,17.62
2018-04-11T11:48:06.348Z,17.62
2018-04-11T11:49:05.951Z,17.62
2018-04-11T11:50:05.782Z,17.62
2018-04-11T11:51:11.137Z,17.69
2018-04-11T11:52:06.396Z,17.69
2018-04-11T11:53:05.621Z,17.62
2018-04-11T11:54:06.196Z,17.62
2018-04-11T11:55:05.885Z,17.62
2018-04-11T11:56:06.045Z,17.62
2018-04-11T11:57:06.530Z,17.62
2018-04-11T11:58:06.027Z,17.56
2018-04-11T11:59:05.632Z,17.56
2018-04-11T12:00:11.529Z,17.56
2018-04-11T12:01:06.184Z,17.56
2018-04-11T12:02:06.126Z,17.50
2018-04-11T12:03:05.623Z,17.50
2018-04-11T12:04:06.353Z,17.44
2018-04-11T12:05:06.511Z,17.44
2018-04-11T12:06:06.526Z,17.31
2018-04-11T12:07:06.104Z,17.31
2018-04-11T12:08:05.693Z,17.38
2018-04-11T12:09:05.985Z,17.62
2018-04-11T12:10:06.359Z,17.75
2018-04-11T12:11:06.177Z,18.06
2018-04-11T12:12:05.714Z,18.25
2018-04-11T12:13:06.040Z,18.25
2018-04-11T12:14:06.186Z,18.31
2018-04-11T12:15:06.346Z,18.31
2018-04-11T12:16:05.552Z,18.19
2018-04-11T12:17:11.127Z,18.06
2018-04-11T12:18:05.728Z,18.00
2018-04-11T12:19:11.443Z,17.88
2018-04-11T12:20:06.103Z,17.75
2018-04-11T12:21:06.195Z,17.69
2018-04-11T12:22:10.864Z,17.62
2018-04-11T12:23:06.263Z,17.44
2018-04-11T12:24:06.116Z,17.38
2018-04-11T12:25:05.743Z,17.38
2018-04-11T12:26:11.455Z,17.31
2018-04-11T12:27:06.196Z,17.31
2018-04-11T12:28:05.877Z,17.31
2018-04-11T12:29:06.112Z,17.25
2018-04-11T12:30:06.520Z,17.19
2018-04-11T12:31:06.363Z,17.12
2018-04-11T12:32:05.804Z,17.12
2018-04-11T12:33:06.053Z,17.12
2018-04-11T12:34:06.599Z,17.12
2018-04-11T12:35:06.518Z,17.12
2018-04-11T12:36:06.359Z,17.06
2018-04-11T12:37:11.127Z,17.00
2018-04-11T12:38:05.805Z,16.94
2018-04-11T12:39:06.106Z,16.94
2018-04-11T12:40:06.538Z,16.94
2018-04-11T12:41:06.340Z,16.88
2018-04-11T12:42:06.428Z,16.88
2018-04-11T12:43:06.601Z,16.88
2018-04-11T12:44:06.581Z,16.94
2018-04-11T12:45:06.501Z,17.00
2018-04-11T12:46:06.605Z,17.19
2018-04-11T12:47:06.524Z,17.19
2018-04-11T12:48:06.211Z,17.19
2018-04-11T12:49:06.034Z,17.19
2018-04-11T12:50:05.549Z,17.19
2018-04-11T12:51:06.662Z,17.19
2018-04-11T12:52:06.100Z,17.19